map of ELS home
ELS - Airport
Location
City:  East London, Eastern Cape, South Africa
ICAO:FAEL
IATA:ELS

Details
Type:Airport (Aerodrome, Airfield)
Use:Public/Civil
Latitude:3302'08"S (-33.035568)
Longitude:2749'33"E (27.825939)
Datum:WGS 1984
Elevation:435 ft (133 m)
Variation:28.63W (WMM2015 magnetic declination)
-0.18 annual change
Runways:2
Longest:6362 × 150 ft (1939 × 45.5 m), paved

Time
Time Zone:UTC+2
Local Time:

Weather
METAR:FAEL 171621Z 07006KT 9999 BKN011 BKN017 24/23 Q1009

Related Locations
Nearby:
Farthest:HPV: 11566 mi / 18614 km
Hanalei [Princeville Airport], Kauai, HI, US

Find:

   beyond  
but within

Other Information
Maps:
NOTAMs:
Links:
Sources:

  
  • flag of South Africa
  • flag of Eastern Cape
  

Sectional Chart

Flight Planning
at skyvector.com

Satellite Image

Google Maps Satellite view

 

Copyright © 2004-2018 Karl L. Swartz. All rights reserved.
The Great Circle Mapper name and logo are trademarks of the Great Circle Mapper.
All other trademarks mentioned herein belong to their respective owners.
Please see credits for attibutions and further copyright information.

  Follow gcmap on Facebook Follow gcmap on Twitter Follow gcmap on Google+ GCmap on LinkedIn

hCard Microformat

Geo Microformat